Time;durP1;ratioP1;P1;durP2;ratioP2;P2;SDS_P1;SDS_P2;PMS_P1;PMS_P2;Temp;Humidity;BMP_temperature;BMP_pressure;BME280_temperature;BME280_humidity;BME280_pressure;Samples;Min_cycle;Max_cycle;Signal;HPM_P1;HPM_P2
2023/03/05 00:02:08;;;;;;;33.57;19.50;;;;;;;5.24;100.00;96402.56;5079160;28;20212;-77
2023/03/05 00:04:35;;;;;;;32.97;18.90;;;;;;;5.24;100.00;96402.56;5092615;28;20218;-77
2023/03/05 00:07:02;;;;;;;36.30;20.27;;;;;;;5.19;100.00;96400.47;5081897;28;20192;-78
2023/03/05 00:09:31;;;;;;;36.67;20.73;;;;;;;5.11;100.00;96397.13;5091482;28;20200;-77
2023/03/05 00:11:58;;;;;;;34.47;19.40;;;;;;;5.10;100.00;96396.31;5082914;28;20276;-77
2023/03/05 00:14:25;;;;;;;37.13;20.57;;;;;;;5.10;100.00;96396.31;5082515;28;20220;-77
2023/03/05 00:16:52;;;;;;;38.67;20.17;;;;;;;5.12;100.00;96390.75;5087959;28;20215;-77
2023/03/05 00:19:20;;;;;;;40.37;21.20;;;;;;;5.03;100.00;96390.06;5091641;28;20227;-77
2023/03/05 00:21:47;;;;;;;36.03;19.73;;;;;;;4.98;100.00;96391.69;5083979;28;20204;-77
2023/03/05 00:24:17;;;;;;;40.10;21.23;;;;;;;4.97;100.00;96387.34;5077865;28;20208;-77
2023/03/05 00:26:45;;;;;;;35.97;20.33;;;;;;;4.89;100.00;96382.97;5088340;28;20220;-77
2023/03/05 00:29:17;;;;;;;38.47;20.00;;;;;;;4.90;100.00;96390.81;5082335;28;20236;-77
2023/03/05 00:31:46;;;;;;;33.87;19.07;;;;;;;4.92;100.00;96398.66;5092093;28;20200;-77
2023/03/05 00:34:15;;;;;;;34.13;18.43;;;;;;;4.86;100.00;96397.56;5083156;28;20220;-77
2023/03/05 00:36:46;;;;;;;39.50;19.63;;;;;;;4.83;100.00;96395.28;5085109;28;20232;-77
2023/03/05 00:39:14;;;;;;;39.67;19.30;;;;;;;4.81;100.00;96391.13;5081130;28;20200;-78
2023/03/05 00:41:41;;;;;;;37.50;19.33;;;;;;;4.80;100.00;96389.47;5089775;28;20201;-77
2023/03/05 00:44:08;;;;;;;34.17;18.43;;;;;;;4.74;100.00;96384.91;5083312;28;20212;-77
2023/03/05 00:46:35;;;;;;;37.20;19.33;;;;;;;4.68;100.00;96386.47;5089587;28;20205;-77
2023/03/05 00:49:03;;;;;;;33.33;18.50;;;;;;;4.62;100.00;96383.75;5088875;27;20293;-77
2023/03/05 00:51:30;;;;;;;33.83;17.13;;;;;;;4.58;100.00;96380.66;5080688;28;20205;-77
2023/03/05 00:53:59;;;;;;;37.70;19.00;;;;;;;4.61;100.00;96382.09;5095735;28;20224;-77
2023/03/05 00:56:26;;;;;;;33.87;18.77;;;;;;;4.61;100.00;96371.41;5089499;28;20201;-77
2023/03/05 00:58:55;;;;;;;34.97;18.57;;;;;;;4.67;100.00;96376.84;5088102;28;20211;-78
2023/03/05 01:01:22;;;;;;;34.83;17.77;;;;;;;4.72;100.00;96374.41;5083592;28;20204;-77
2023/03/05 01:03:49;;;;;;;32.33;18.70;;;;;;;4.78;100.00;96370.09;5090327;28;20207;-77
2023/03/05 01:06:17;;;;;;;32.03;17.93;;;;;;;4.77;100.00;96363.94;5078924;28;20201;-77
2023/03/05 01:08:44;;;;;;;33.50;18.67;;;;;;;4.73;100.00;96356.50;5088381;28;20205;-77
2023/03/05 01:11:13;;;;;;;37.50;19.27;;;;;;;4.77;100.00;96363.09;5089819;28;20204;-77
2023/03/05 01:13:40;;;;;;;32.83;18.03;;;;;;;4.80;100.00;96352.03;5081557;28;20228;-77
2023/03/05 01:16:08;;;;;;;32.17;18.00;;;;;;;4.83;100.00;96351.66;5081567;28;20192;-78
2023/03/05 01:18:35;;;;;;;35.37;17.93;;;;;;;4.79;100.00;96337.00;5088109;28;20227;-78
2023/03/05 01:21:03;;;;;;;44.83;19.27;;;;;;;4.71;100.00;96342.47;5087114;28;20196;-77
2023/03/05 01:23:31;;;;;;;36.13;18.60;;;;;;;4.73;100.00;96345.81;5087411;28;20201;-77
2023/03/05 01:25:59;;;;;;;35.13;18.10;;;;;;;4.73;100.00;96348.47;5088685;28;20216;-78
2023/03/05 01:28:28;;;;;;;35.87;19.57;;;;;;;4.77;100.00;96339.03;5089492;28;20197;-77
2023/03/05 01:30:56;;;;;;;37.10;19.53;;;;;;;4.80;100.00;96341.31;5089533;28;20196;-77
2023/03/05 01:33:23;;;;;;;30.20;17.67;;;;;;;4.86;100.00;96337.84;5090867;28;20224;-78
2023/03/05 01:35:51;;;;;;;35.63;18.37;;;;;;;4.92;100.00;96337.94;5079386;28;20295;-78
2023/03/05 01:38:18;;;;;;;32.50;17.27;;;;;;;4.92;100.00;96337.94;5067347;28;20211;-77
2023/03/05 01:40:45;;;;;;;33.67;17.80;;;;;;;4.86;100.00;96346.72;5084005;28;20265;-78
2023/03/05 01:43:26;;;;;;;31.87;18.47;;;;;;;4.87;100.00;96350.22;5078464;28;20204;-77
2023/03/05 01:46:36;;;;;;;43.03;21.50;;;;;;;4.85;100.00;96342.38;5084685;28;20486;-76
2023/03/05 01:49:15;;;;;;;44.57;23.07;;;;;;;4.95;100.00;96334.03;5004137;28;20248;-77
2023/03/05 01:51:50;;;;;;;42.37;21.80;;;;;;;4.80;100.00;96338.66;4997767;28;20215;-77
2023/03/05 01:54:20;;;;;;;39.73;22.07;;;;;;;4.80;100.00;96333.28;5051777;28;20270;-77
2023/03/05 01:56:49;;;;;;;43.37;22.57;;;;;;;4.77;100.00;96333.69;5078069;28;20213;-77
2023/03/05 01:59:17;;;;;;;43.10;23.30;;;;;;;4.77;100.00;96336.34;5089027;28;20200;-77
2023/03/05 02:01:50;;;;;;;38.57;21.03;;;;;;;4.70;100.00;96332.81;5084184;28;20259;-77
2023/03/05 02:04:19;;;;;;;44.13;22.33;;;;;;;4.76;100.00;96318.69;5084855;28;20304;-77
2023/03/05 02:06:48;;;;;;;41.53;20.90;;;;;;;4.65;100.00;96320.03;5095979;27;20205;-77
2023/03/05 02:09:15;;;;;;;40.07;23.03;;;;;;;4.61;100.00;96317.91;5086411;28;20206;-77
2023/03/05 02:11:43;;;;;;;46.57;22.77;;;;;;;4.60;100.00;96313.59;5088555;28;20205;-77
2023/03/05 02:14:12;;;;;;;42.53;23.33;;;;;;;4.59;100.00;96322.66;5078464;28;20255;-77
2023/03/05 02:16:39;;;;;;;47.23;22.73;;;;;;;4.59;100.00;96317.31;5077534;28;20201;-77
2023/03/05 02:19:10;;;;;;;44.23;22.97;;;;;;;4.61;100.00;96315.25;5075239;28;20219;-77
2023/03/05 02:21:40;;;;;;;43.53;22.40;;;;;;;4.56;100.00;96314.00;5107820;27;20199;-77
2023/03/05 02:24:10;;;;;;;41.90;22.10;;;;;;;4.53;100.00;96313.53;5098786;28;20204;-78
2023/03/05 02:26:37;;;;;;;44.57;22.80;;;;;;;4.50;100.00;96314.78;5084229;28;20314;-77
2023/03/05 02:29:08;;;;;;;47.60;24.17;;;;;;;4.46;100.00;96313.50;5105684;28;20263;-77
2023/03/05 02:31:37;;;;;;;44.20;22.97;;;;;;;4.45;100.00;96305.66;5100634;28;20243;-78
2023/03/05 02:34:06;;;;;;;46.50;23.30;;;;;;;4.38;100.00;96300.25;5085611;28;20224;-77
2023/03/05 02:36:34;;;;;;;45.83;21.90;;;;;;;4.37;100.00;96305.78;5080665;28;20266;-77
2023/03/05 02:39:03;;;;;;;44.00;23.23;;;;;;;4.30;100.00;96295.06;5085180;28;20197;-77
2023/03/05 02:41:30;;;;;;;45.43;22.70;;;;;;;4.32;100.00;96298.38;5088093;28;20236;-77
2023/03/05 02:43:58;;;;;;;46.93;23.20;;;;;;;4.27;100.00;96295.44;5083663;28;20196;-77
2023/03/05 02:46:26;;;;;;;47.30;23.90;;;;;;;4.23;100.00;96288.00;5086603;28;20196;-78
2023/03/05 02:48:53;;;;;;;44.30;23.23;;;;;;;4.22;100.00;96289.03;5089379;28;20205;-77
2023/03/05 02:51:20;;;;;;;40.57;21.80;;;;;;;4.21;100.00;96288.19;5079153;28;20201;-77
2023/03/05 02:53:48;;;;;;;46.30;22.93;;;;;;;4.24;100.00;96284.31;5078221;28;20219;-78
2023/03/05 02:56:17;;;;;;;47.97;23.77;;;;;;;4.28;100.00;96282.91;5086834;28;20193;-77
2023/03/05 02:58:44;;;;;;;42.40;23.27;;;;;;;4.24;100.00;96277.13;5078905;28;20201;-77
2023/03/05 03:01:12;;;;;;;45.73;24.03;;;;;;;4.26;100.00;96264.38;5081167;28;20245;-77
2023/03/05 03:03:39;;;;;;;43.70;24.27;;;;;;;4.22;100.00;96273.81;5075065;28;20192;-77
2023/03/05 03:06:09;;;;;;;48.67;23.67;;;;;;;4.25;100.00;96267.25;5085473;28;20311;-77
2023/03/05 03:08:36;;;;;;;45.90;23.90;;;;;;;4.23;100.00;96266.63;5085805;28;20207;-77
2023/03/05 03:11:08;;;;;;;42.87;23.07;;;;;;;4.24;100.00;96258.41;5078983;28;20219;-77
2023/03/05 03:13:36;;;;;;;44.23;23.80;;;;;;;4.17;100.00;96268.19;5080966;28;20225;-77
2023/03/05 03:16:05;;;;;;;48.63;24.30;;;;;;;4.19;100.00;96264.31;5079350;28;20205;-77
2023/03/05 03:18:32;;;;;;;47.13;23.73;;;;;;;4.18;100.00;96262.66;5076788;28;20300;-77
2023/03/05 03:20:59;;;;;;;43.83;23.77;;;;;;;4.23;100.00;96259.44;5076267;28;20200;-77
2023/03/05 03:23:27;;;;;;;44.53;23.37;;;;;;;4.22;100.00;96262.28;5089816;28;20267;-77
2023/03/05 03:25:54;;;;;;;43.07;22.77;;;;;;;4.13;100.00;96262.44;5077970;28;20200;-77
2023/03/05 03:28:21;;;;;;;50.57;24.90;;;;;;;4.10;100.00;96260.13;5084261;28;20209;-78
2023/03/05 03:30:49;;;;;;;50.77;24.00;;;;;;;4.09;100.00;96263.81;5090128;28;20189;-77
2023/03/05 03:33:17;;;;;;;47.13;24.30;;;;;;;4.09;100.00;96266.50;5082827;28;20204;-77
2023/03/05 03:35:44;;;;;;;45.37;23.97;;;;;;;4.14;100.00;96260.59;5074307;28;20232;-77
2023/03/05 03:38:12;;;;;;;46.40;24.03;;;;;;;4.07;100.00;96267.72;5078000;28;20211;-77
2023/03/05 03:40:40;;;;;;;47.83;23.93;;;;;;;4.05;100.00;96262.56;5079914;28;20204;-78
2023/03/05 03:43:08;;;;;;;48.57;24.73;;;;;;;4.01;100.00;96261.28;5077067;28;20211;-77
2023/03/05 03:45:35;;;;;;;49.50;24.83;;;;;;;3.96;100.00;96261.03;5083902;28;20192;-77
2023/03/05 03:48:03;;;;;;;46.77;25.33;;;;;;;3.98;100.00;96258.19;5085685;28;20224;-77
2023/03/05 03:50:32;;;;;;;48.03;24.60;;;;;;;3.99;100.00;96258.00;5081054;28;20207;-77
2023/03/05 03:52:59;;;;;;;44.57;24.30;;;;;;;3.94;100.00;96256.91;5086107;28;20209;-78
2023/03/05 03:55:26;;;;;;;49.80;25.33;;;;;;;3.86;100.00;96257.84;5085462;28;20227;-77
2023/03/05 03:57:53;;;;;;;47.77;26.20;;;;;;;3.91;100.00;96265.31;5090376;28;20215;-78
2023/03/05 04:00:21;;;;;;;49.00;26.13;;;;;;;3.84;100.00;96265.22;5078959;28;20200;-77
2023/03/05 04:02:48;;;;;;;52.67;25.40;;;;;;;3.77;100.00;96265.16;5077710;28;20281;-77
2023/03/05 04:05:16;;;;;;;46.57;25.23;;;;;;;3.82;100.00;96269.13;5088442;28;20211;-77
2023/03/05 04:07:44;;;;;;;53.27;25.33;;;;;;;3.77;100.00;96259.81;5081684;28;20286;-77
2023/03/05 04:10:12;;;;;;;47.07;25.17;;;;;;;3.69;100.00;96264.47;5076560;28;20216;-77
2023/03/05 04:12:41;;;;;;;51.33;25.53;;;;;;;3.75;100.00;96267.19;5083890;28;20185;-77
2023/03/05 04:15:09;;;;;;;48.97;24.83;;;;;;;3.74;100.00;96259.41;5079286;28;20228;-77
2023/03/05 04:17:36;;;;;;;53.23;27.27;;;;;;;3.71;100.00;96265.09;5094867;28;20232;-77
2023/03/05 04:20:05;;;;;;;48.97;25.47;;;;;;;3.69;100.00;96270.63;5092369;28;20204;-76
2023/03/05 04:22:33;;;;;;;55.20;26.87;;;;;;;3.70;100.00;96261.59;5079632;28;20204;-77
2023/03/05 04:25:02;;;;;;;51.33;25.33;;;;;;;3.71;100.00;96265.94;5080872;28;20201;-77
2023/03/05 04:27:29;;;;;;;47.57;24.70;;;;;;;3.70;100.00;96264.28;5075933;28;20213;-78
2023/03/05 04:29:56;;;;;;;53.13;26.23;;;;;;;3.76;100.00;96263.50;5095978;28;20200;-77
2023/03/05 04:32:27;;;;;;;53.93;27.00;;;;;;;3.77;100.00;96265.16;5083254;28;20226;-77
2023/03/05 04:34:54;;;;;;;58.30;29.60;;;;;;;3.68;100.00;96255.63;5078499;28;20315;-77
2023/03/05 04:37:21;;;;;;;50.57;26.93;;;;;;;3.68;100.00;96255.63;5079209;28;20211;-77
2023/03/05 04:39:50;;;;;;;53.90;27.87;;;;;;;3.73;100.00;96255.06;5086390;28;20204;-77
2023/03/05 04:42:18;;;;;;;52.63;26.53;;;;;;;3.70;100.00;96250.91;5074560;28;20197;-77
2023/03/05 04:44:45;;;;;;;51.37;25.20;;;;;;;3.70;100.00;96248.25;5080081;28;20205;-77
2023/03/05 04:47:12;;;;;;;54.33;26.40;;;;;;;3.71;100.00;96249.09;5076958;28;20241;-77
2023/03/05 04:49:40;;;;;;;51.27;25.33;;;;;;;3.75;100.00;96251.16;5088207;28;20307;-77
2023/03/05 04:52:07;;;;;;;52.47;26.57;;;;;;;3.79;100.00;96251.63;5085687;28;20211;-77
2023/03/05 04:54:34;;;;;;;47.63;24.40;;;;;;;3.73;100.00;96242.53;5078647;28;20469;-77
2023/03/05 04:57:02;;;;;;;47.93;26.20;;;;;;;3.72;100.00;96248.91;5088154;28;20204;-78
2023/03/05 04:59:29;;;;;;;54.53;27.23;;;;;;;3.71;100.00;96249.09;5087347;28;20216;-78
2023/03/05 05:01:57;;;;;;;57.13;26.80;;;;;;;3.72;100.00;96240.06;5082619;28;20201;-77
2023/03/05 05:04:24;;;;;;;51.80;27.40;;;;;;;3.73;100.00;96233.69;5083168;28;20219;-77
2023/03/05 05:06:54;;;;;;;51.77;25.93;;;;;;;3.83;100.00;96241.41;5092970;28;20208;-77
2023/03/05 05:09:21;;;;;;;50.93;25.00;;;;;;;3.80;100.00;96240.75;5090274;28;20205;-77
2023/03/05 05:11:48;;;;;;;56.50;27.30;;;;;;;3.84;100.00;96235.00;5084509;28;20201;-77
2023/03/05 05:14:17;;;;;;;50.37;26.47;;;;;;;3.83;100.00;96231.50;5085896;28;20314;-77
2023/03/05 05:16:44;;;;;;;48.87;24.77;;;;;;;3.84;100.00;96235.00;5104189;28;20220;-77
2023/03/05 05:19:11;;;;;;;52.33;26.23;;;;;;;3.85;100.00;96234.00;5076501;28;20282;-78
2023/03/05 05:21:38;;;;;;;49.70;26.00;;;;;;;3.89;100.00;96229.94;5102502;28;20204;-77
2023/03/05 05:24:06;;;;;;;52.20;26.60;;;;;;;3.85;100.00;96223.31;5103611;28;20239;-77
2023/03/05 05:26:33;;;;;;;47.17;25.50;;;;;;;3.87;100.00;96223.97;5090521;28;20208;-77
2023/03/05 05:29:00;;;;;;;56.63;27.83;;;;;;;3.85;100.00;96216.13;5083844;28;20212;-77
2023/03/05 05:31:28;;;;;;;51.43;26.13;;;;;;;3.83;100.00;96212.81;5083244;28;20197;-78
2023/03/05 05:33:55;;;;;;;56.43;27.63;;;;;;;3.82;100.00;96215.72;5085102;28;20204;-77
2023/03/05 05:36:22;;;;;;;51.33;26.33;;;;;;;3.85;100.00;96209.97;5082748;28;20216;-77
2023/03/05 05:38:49;;;;;;;49.90;25.67;;;;;;;3.82;100.00;96219.22;5101485;28;20257;-77
2023/03/05 05:41:18;;;;;;;50.73;26.53;;;;;;;3.80;100.00;96222.06;5076235;28;20204;-77
2023/03/05 05:43:45;;;;;;;50.80;26.17;;;;;;;3.80;100.00;96226.56;5075674;28;20204;-77
2023/03/05 05:46:15;;;;;;;49.30;25.57;;;;;;;3.78;100.00;96226.75;5077602;28;20205;-77
2023/03/05 05:48:44;;;;;;;50.87;26.03;;;;;;;3.84;100.00;96222.50;5077730;28;20292;-78
2023/03/05 05:51:13;;;;;;;57.20;28.00;;;;;;;3.74;100.00;96227.34;5084152;28;20212;-77
2023/03/05 05:53:41;;;;;;;55.10;27.47;;;;;;;3.70;100.00;96226.88;5083575;28;20197;-77
2023/03/05 05:56:11;;;;;;;50.37;26.57;;;;;;;3.70;100.00;96226.06;5075000;28;20213;-77
2023/03/05 05:58:40;;;;;;;48.83;24.77;;;;;;;3.59;100.00;96230.06;5085033;28;20229;-77
2023/03/05 06:01:13;;;;;;;53.13;26.70;;;;;;;3.57;100.00;96226.78;5093141;28;20265;-77
2023/03/05 06:03:40;;;;;;;52.17;26.77;;;;;;;3.52;100.00;96228.34;5105797;28;20346;-77
2023/03/05 06:06:10;;;;;;;51.53;26.93;;;;;;;3.51;100.00;96230.16;5081764;28;20204;-77
2023/03/05 06:08:38;;;;;;;54.00;27.73;;;;;;;3.49;100.00;96228.72;5107216;28;20200;-77
2023/03/05 06:11:05;;;;;;;48.90;25.00;;;;;;;3.54;100.00;96232.47;5087294;28;20212;-77
2023/03/05 06:13:32;;;;;;;52.40;26.93;;;;;;;3.55;100.00;96235.97;5073517;28;20227;-77
2023/03/05 06:16:02;;;;;;;57.13;27.87;;;;;;;3.55;100.00;96233.31;5101188;28;20221;-77
2023/03/05 06:18:29;;;;;;;57.63;27.80;;;;;;;3.55;100.00;96236.81;5084657;28;20200;-77
2023/03/05 06:20:56;;;;;;;59.10;28.60;;;;;;;3.46;100.00;96224.59;5083599;28;20197;-77
2023/03/05 06:23:26;;;;;;;53.40;26.57;;;;;;;3.43;100.00;96239.13;5086335;28;20213;-78
2023/03/05 06:25:53;;;;;;;50.17;27.77;;;;;;;3.41;100.00;96230.47;5077650;28;20192;-77
2023/03/05 06:28:20;;;;;;;55.27;27.67;;;;;;;3.41;100.00;96237.66;5077905;28;20296;-77
2023/03/05 06:30:47;;;;;;;57.57;29.37;;;;;;;3.44;100.00;96229.28;5075425;28;20195;-77
2023/03/05 06:33:14;;;;;;;51.23;27.73;;;;;;;3.47;100.00;96230.75;5085067;28;20235;-78
2023/03/05 06:35:42;;;;;;;59.73;28.63;;;;;;;3.53;100.00;96224.66;5078156;28;20228;-77
2023/03/05 06:38:09;;;;;;;53.20;27.60;;;;;;;3.58;100.00;96233.72;5099564;28;20294;-77
2023/03/05 06:40:39;;;;;;;54.17;27.73;;;;;;;3.54;100.00;96234.31;5079060;28;20212;-77
2023/03/05 06:43:07;;;;;;;54.77;28.00;;;;;;;3.50;100.00;96230.34;5085107;28;20318;-78
2023/03/05 06:45:34;;;;;;;56.33;27.83;;;;;;;3.48;100.00;96222.56;5103556;28;20200;-78
2023/03/05 06:48:01;;;;;;;53.63;27.27;;;;;;;3.54;100.00;96232.47;5085628;28;20312;-77
2023/03/05 06:50:28;;;;;;;58.97;27.63;;;;;;;3.53;100.00;96230.81;5078221;28;20200;-78
2023/03/05 06:52:55;;;;;;;56.03;27.40;;;;;;;3.58;100.00;96233.72;5083009;28;20295;-78
2023/03/05 06:55:22;;;;;;;57.63;27.23;;;;;;;3.55;100.00;96223.47;5079518;28;20223;-78
2023/03/05 06:57:50;;;;;;;55.13;27.50;;;;;;;3.54;100.00;96221.81;5074760;28;20250;-78
2023/03/05 07:00:18;;;;;;;53.80;26.80;;;;;;;3.54;100.00;96221.81;5076228;28;20212;-78
2023/03/05 07:02:45;;;;;;;55.33;28.27;;;;;;;3.49;100.00;96218.84;5072862;28;20205;-78
2023/03/05 07:05:12;;;;;;;55.60;28.33;;;;;;;3.51;100.00;96210.66;5077839;28;20214;-78
2023/03/05 07:07:39;;;;;;;56.47;27.47;;;;;;;3.52;100.00;96215.00;5074836;28;20208;-78
2023/03/05 07:10:07;;;;;;;52.67;26.13;;;;;;;3.55;100.00;96219.97;5083007;28;20192;-78
2023/03/05 07:12:34;;;;;;;62.60;27.07;;;;;;;3.58;100.00;96217.72;5082561;28;20219;-78
2023/03/05 07:15:03;;;;;;;50.50;25.37;;;;;;;3.57;100.00;96216.09;5080185;28;20228;-79
2023/03/05 07:17:30;;;;;;;53.33;27.60;;;;;;;3.59;100.00;96214.03;5078188;28;20215;-79
2023/03/05 07:19:57;;;;;;;55.40;27.73;;;;;;;3.64;100.00;96208.97;5082038;28;20212;-78
2023/03/05 07:22:24;;;;;;;55.80;27.07;;;;;;;3.66;100.00;96206.91;5076546;28;20201;-78
2023/03/05 07:24:51;;;;;;;52.10;28.03;;;;;;;3.63;100.00;96209.16;5070195;28;20192;-78
2023/03/05 07:27:18;;;;;;;52.50;26.47;;;;;;;3.68;100.00;96210.22;5082474;28;20207;-77
2023/03/05 07:29:45;;;;;;;55.77;27.23;;;;;;;3.69;100.00;96208.38;5073360;28;20201;-79
2023/03/05 07:32:13;;;;;;;58.03;28.20;;;;;;;3.67;100.00;96207.75;5074302;28;20237;-78
2023/03/05 07:34:40;;;;;;;55.40;26.47;;;;;;;3.70;100.00;96205.53;5085015;28;20216;-78
2023/03/05 07:37:07;;;;;;;56.43;28.57;;;;;;;3.67;100.00;96205.91;5085085;28;20303;-78
2023/03/05 07:39:34;;;;;;;55.20;27.67;;;;;;;3.63;100.00;96198.47;5076392;28;20200;-79
2023/03/05 07:42:01;;;;;;;57.57;27.70;;;;;;;3.64;100.00;96206.28;5086276;28;20234;-77
2023/03/05 07:44:45;;;;;;;58.73;28.80;;;;;;;3.58;100.00;96192.84;5077382;28;20197;-78
2023/03/05 07:47:14;;;;;;;55.90;28.50;;;;;;;3.66;100.00;96193.56;5084611;28;20277;-78
2023/03/05 07:49:41;;;;;;;58.30;28.67;;;;;;;3.71;100.00;96185.81;5084156;28;20199;-78
2023/03/05 07:52:09;;;;;;;57.17;28.63;;;;;;;3.74;100.00;96190.75;5083943;28;20386;-78
2023/03/05 07:54:39;;;;;;;55.83;27.70;;;;;;;3.88;100.00;96180.22;5079843;28;20421;-78
2023/03/05 07:57:07;;;;;;;56.53;27.13;;;;;;;3.98;100.00;96186.06;5095038;28;20398;-77
2023/03/05 07:59:34;;;;;;;57.43;27.07;;;;;;;4.02;100.00;96187.31;5083303;28;20221;-78
2023/03/05 08:02:02;;;;;;;61.57;28.93;;;;;;;4.11;100.00;96181.63;5082168;28;20219;-79
2023/03/05 08:04:31;;;;;;;56.50;28.43;;;;;;;4.24;100.00;96180.91;5080534;28;20212;-78
2023/03/05 08:06:58;;;;;;;52.57;26.77;;;;;;;4.27;100.00;96183.19;5079525;28;20201;-77
2023/03/05 08:09:25;;;;;;;55.60;28.20;;;;;;;4.27;100.00;96177.00;5078460;28;20203;-78
2023/03/05 08:11:52;;;;;;;53.93;27.57;;;;;;;4.34;100.00;96180.56;5087305;28;20498;-78
2023/03/05 08:14:19;;;;;;;57.37;27.60;;;;;;;4.44;100.00;96170.34;5076474;28;20229;-79
2023/03/05 08:16:49;;;;;;;52.63;27.57;;;;;;;4.47;100.00;96173.44;5086037;28;20228;-78
2023/03/05 08:19:16;;;;;;;56.83;28.50;;;;;;;4.44;100.00;96173.84;5082696;28;20196;-78
2023/03/05 08:21:45;;;;;;;56.53;28.53;;;;;;;4.52;100.00;96167.50;5087329;28;20207;-78
2023/03/05 08:24:13;;;;;;;55.77;28.60;;;;;;;4.59;100.00;96164.88;5086287;28;20208;-78
2023/03/05 08:26:41;;;;;;;55.00;28.83;;;;;;;4.65;100.00;96161.41;5082638;28;20207;-78
2023/03/05 08:29:09;;;;;;;51.93;27.03;;;;;;;4.62;100.00;96161.78;5088792;28;20215;-78
2023/03/05 08:31:37;;;;;;;57.87;28.27;;;;;;;4.60;100.00;96163.84;5088135;28;20192;-78
2023/03/05 08:34:05;;;;;;;54.33;28.03;;;;;;;4.63;100.00;96164.28;5086766;28;20246;-78
2023/03/05 08:36:32;;;;;;;51.53;26.83;;;;;;;4.69;100.00;96157.31;5090191;28;20212;-77
2023/03/05 08:39:00;;;;;;;53.33;26.83;;;;;;;4.71;100.00;96155.25;5087912;28;20312;-78
2023/03/05 08:41:28;;;;;;;48.57;25.77;;;;;;;4.79;100.00;96147.06;5075880;28;20213;-78
2023/03/05 08:43:56;;;;;;;51.73;24.70;;;;;;;4.75;100.00;96145.84;5086768;28;20200;-78
2023/03/05 08:46:23;;;;;;;48.40;25.33;;;;;;;4.77;100.00;96133.06;5086244;28;20200;-78
2023/03/05 08:48:51;;;;;;;47.40;24.90;;;;;;;4.83;100.00;96132.28;5082919;28;20197;-78
2023/03/05 08:51:20;;;;;;;45.53;24.53;;;;;;;4.86;100.00;96132.69;5088286;28;20209;-78
2023/03/05 08:53:47;;;;;;;53.90;26.43;;;;;;;4.93;100.00;96124.72;5087135;28;20213;-78
2023/03/05 08:56:16;;;;;;;49.43;24.90;;;;;;;4.95;100.00;96128.00;5078399;28;20228;-78
2023/03/05 08:58:44;;;;;;;52.13;26.67;;;;;;;4.81;100.00;96127.13;5087233;28;20209;-78
2023/03/05 09:01:12;;;;;;;48.13;25.07;;;;;;;4.88;100.00;96119.13;5090465;28;20208;-78
2023/03/05 09:03:40;;;;;;;42.83;22.73;;;;;;;4.87;100.00;96122.81;5080231;28;20197;-78
2023/03/05 09:06:11;;;;;;;44.47;23.47;;;;;;;4.82;100.00;96125.28;5076641;28;20193;-78
2023/03/05 09:08:38;;;;;;;44.83;23.60;;;;;;;4.93;100.00;96122.03;5088541;28;20200;-78
2023/03/05 09:11:12;;;;;;;51.40;23.40;;;;;;;5.06;100.00;96119.41;5077883;28;20205;-78
2023/03/05 09:13:40;;;;;;;40.53;21.50;;;;;;;5.12;100.00;96112.41;5082515;28;20259;-78
2023/03/05 09:16:11;;;;;;;35.77;19.47;;;;;;;5.26;100.00;96112.25;5081869;28;20221;-78
2023/03/05 09:18:39;;;;;;;34.80;18.63;;;;;;;5.28;100.00;96110.16;5084677;28;20205;-78
2023/03/05 09:21:07;;;;;;;34.17;18.93;;;;;;;5.42;100.00;96099.50;5087917;28;20201;-77
2023/03/05 09:23:35;;;;;;;33.57;17.67;;;;;;;5.55;97.96;96094.16;5098060;28;20205;-79
2023/03/05 09:26:04;;;;;;;31.37;16.73;;;;;;;5.62;96.60;96086.94;5076582;28;20192;-77
2023/03/05 09:28:31;;;;;;;34.93;18.43;;;;;;;5.60;97.01;96079.13;5101177;28;20258;-77
2023/03/05 09:31:02;;;;;;;30.67;17.17;;;;;;;5.65;97.33;96078.50;5097947;28;20196;-78
2023/03/05 09:33:29;;;;;;;32.17;17.27;;;;;;;5.73;96.26;96070.25;5092238;28;20208;-78
2023/03/05 09:35:56;;;;;;;31.73;16.90;;;;;;;5.71;93.97;96059.75;5085447;28;20262;-77
2023/03/05 09:38:23;;;;;;;35.27;17.93;;;;;;;5.74;95.55;96055.00;5090509;28;20276;-78
2023/03/05 09:40:57;;;;;;;31.63;17.33;;;;;;;5.77;95.95;96054.59;5093348;28;20196;-78
2023/03/05 09:43:32;;;;;;;32.30;19.17;;;;;;;5.87;96.05;96055.00;5087657;28;20204;-78
2023/03/05 09:46:14;;;;;;;35.93;18.70;;;;;;;5.90;94.72;96052.75;5099250;28;20212;-78
2023/03/05 09:48:51;;;;;;;33.53;17.40;;;;;;;6.03;94.94;96047.38;5103038;27;20287;-78
2023/03/05 09:51:23;;;;;;;31.73;18.07;;;;;;;6.20;93.42;96049.63;5084352;28;20288;-78
2023/03/05 09:53:58;;;;;;;30.40;17.47;;;;;;;6.29;93.75;96043.00;5099984;28;20292;-78
2023/03/05 09:56:30;;;;;;;32.53;17.37;;;;;;;6.42;91.55;96042.94;5077651;28;20262;-78
2023/03/05 09:59:03;;;;;;;31.80;18.30;;;;;;;6.46;90.05;96044.97;5087513;28;20209;-79
2023/03/05 10:01:37;;;;;;;35.57;19.03;;;;;;;6.54;91.32;96040.44;5074034;28;20212;-77
2023/03/05 10:04:12;;;;;;;32.67;17.10;;;;;;;6.62;90.22;96032.97;5081926;28;20212;-79
2023/03/05 10:06:48;;;;;;;34.13;18.73;;;;;;;6.69;90.72;96027.56;5089461;28;20214;-79
2023/03/05 10:09:24;;;;;;;37.43;18.67;;;;;;;6.82;90.90;96033.69;5093267;27;20219;-78
2023/03/05 10:11:55;;;;;;;34.40;18.57;;;;;;;7.04;90.42;96025.31;5074756;28;20216;-78
2023/03/05 10:14:27;;;;;;;32.17;18.20;;;;;;;7.14;88.54;96023.81;5090067;28;20235;-78
2023/03/05 10:17:27;;;;;;;31.63;17.90;;;;;;;7.22;87.46;96012.81;5074239;28;20224;-78
2023/03/05 10:20:07;;;;;;;35.60;18.10;;;;;;;7.40;87.45;96013.91;5097496;28;20206;-78
2023/03/05 10:22:42;;;;;;;31.57;17.30;;;;;;;7.54;86.08;96012.75;5096113;28;20200;-77
2023/03/05 10:25:20;;;;;;;34.03;17.93;;;;;;;7.72;84.74;96015.50;5095066;28;20243;-79
2023/03/05 10:27:50;;;;;;;41.47;21.53;;;;;;;7.66;90.40;96007.47;5086294;28;20202;-79
2023/03/05 10:30:53;;;;;;;38.83;21.77;;;;;;;7.62;91.63;96000.91;5086316;28;20201;-79
2023/03/05 10:33:30;;;;;;;41.50;21.30;;;;;;;7.72;91.08;95995.88;5077086;28;20200;-79
2023/03/05 10:36:17;;;;;;;37.80;20.93;;;;;;;7.73;92.63;95994.81;5087698;28;20234;-78
2023/03/05 10:39:08;;;;;;;38.27;21.33;;;;;;;7.77;91.41;96001.38;5082744;28;20210;-78
2023/03/05 10:41:47;;;;;;;42.10;21.40;;;;;;;7.78;90.22;95994.97;5082567;28;20208;-78
2023/03/05 10:44:22;;;;;;;38.60;20.83;;;;;;;7.86;89.67;95986.63;5081194;28;20300;-78
2023/03/05 10:46:50;;;;;;;42.50;22.43;;;;;;;7.92;88.24;95983.03;5075114;28;20231;-78
2023/03/05 10:49:21;;;;;;;37.27;20.10;;;;;;;8.03;88.14;95982.31;5076341;28;20212;-79
2023/03/05 10:51:52;;;;;;;32.50;19.00;;;;;;;8.11;87.82;95983.88;5077566;28;20201;-77
2023/03/05 10:54:25;;;;;;;36.20;19.47;;;;;;;8.38;88.36;95982.56;5074053;28;20205;-77
2023/03/05 10:57:03;;;;;;;33.93;19.20;;;;;;;8.59;85.99;95984.78;5082005;28;20224;-78
2023/03/05 10:59:31;;;;;;;35.63;19.53;;;;;;;8.67;85.44;95983.66;5088944;28;20214;-77
2023/03/05 11:02:04;;;;;;;38.57;21.33;;;;;;;8.70;84.57;95977.81;5081807;28;20201;-77
2023/03/05 11:04:35;;;;;;;36.67;21.00;;;;;;;8.55;83.27;95991.66;5084387;28;20208;-78
2023/03/05 11:07:07;;;;;;;34.93;19.43;;;;;;;8.50;85.99;95977.25;5093026;28;20257;-78
2023/03/05 11:09:34;;;;;;;38.83;20.00;;;;;;;8.76;85.37;95976.94;5088295;28;20250;-77
2023/03/05 11:12:14;;;;;;;36.00;21.33;;;;;;;8.95;83.61;95972.28;5079182;28;20212;-77
2023/03/05 11:14:45;;;;;;;33.13;20.87;;;;;;;9.01;81.77;95968.69;5098895;28;20224;-78
2023/03/05 11:17:28;;;;;;;37.00;21.10;;;;;;;8.97;82.91;95973.72;5085088;28;20232;-77
2023/03/05 11:20:05;;;;;;;37.93;22.57;;;;;;;9.04;83.62;95963.66;5086030;28;20241;-78
2023/03/05 11:22:34;;;;;;;34.97;19.70;;;;;;;8.83;82.46;95958.81;5079015;28;20204;-78
2023/03/05 11:25:15;;;;;;;36.90;19.87;;;;;;;8.75;83.18;95955.59;5094897;28;20288;-77
2023/03/05 11:27:49;;;;;;;32.70;18.97;;;;;;;8.89;83.31;95952.50;5082194;28;20237;-78
2023/03/05 11:30:21;;;;;;;39.63;22.47;;;;;;;9.17;84.48;95951.06;5083812;28;20226;-78